sensor_id;sensor_type;location;lat;lon;timestamp;P1;durP1;ratioP1;P2;durP2;ratioP2
8161;SDS011;16778;48.154;15.094;2022-07-03T00:01:59;2.17;;;1.10;;
8161;SDS011;16778;48.154;15.094;2022-07-03T00:04:25;1.80;;;1.30;;
8161;SDS011;16778;48.154;15.094;2022-07-03T00:06:52;1.07;;;0.97;;
8161;SDS011;16778;48.154;15.094;2022-07-03T00:09:19;0.90;;;0.90;;
8161;SDS011;16778;48.154;15.094;2022-07-03T00:11:45;0.73;;;0.73;;
8161;SDS011;16778;48.154;15.094;2022-07-03T00:14:11;1.37;;;1.00;;
8161;SDS011;16778;48.154;15.094;2022-07-03T00:16:38;1.37;;;1.10;;
8161;SDS011;16778;48.154;15.094;2022-07-03T00:19:04;1.03;;;0.83;;
8161;SDS011;16778;48.154;15.094;2022-07-03T00:21:50;1.00;;;0.60;;
8161;SDS011;16778;48.154;15.094;2022-07-03T00:24:24;1.00;;;0.90;;
8161;SDS011;16778;48.154;15.094;2022-07-03T00:26:54;0.90;;;0.73;;
8161;SDS011;16778;48.154;15.094;2022-07-03T00:29:22;1.40;;;0.90;;
8161;SDS011;16778;48.154;15.094;2022-07-03T00:31:50;0.80;;;0.77;;
8161;SDS011;16778;48.154;15.094;2022-07-03T00:34:16;0.63;;;0.60;;
8161;SDS011;16778;48.154;15.094;2022-07-03T00:36:45;1.50;;;0.83;;
8161;SDS011;16778;48.154;15.094;2022-07-03T00:39:13;1.30;;;0.90;;
8161;SDS011;16778;48.154;15.094;2022-07-03T00:41:39;1.30;;;1.20;;
8161;SDS011;16778;48.154;15.094;2022-07-03T00:44:08;0.70;;;0.70;;
8161;SDS011;16778;48.154;15.094;2022-07-03T00:46:34;0.87;;;0.87;;
8161;SDS011;16778;48.154;15.094;2022-07-03T00:49:06;1.73;;;1.17;;
8161;SDS011;16778;48.154;15.094;2022-07-03T00:51:35;1.03;;;0.93;;
8161;SDS011;16778;48.154;15.094;2022-07-03T00:54:05;1.70;;;1.00;;
8161;SDS011;16778;48.154;15.094;2022-07-03T00:56:35;1.87;;;0.97;;
8161;SDS011;16778;48.154;15.094;2022-07-03T00:59:06;0.80;;;0.80;;
8161;SDS011;16778;48.154;15.094;2022-07-03T01:01:33;1.23;;;1.13;;
8161;SDS011;16778;48.154;15.094;2022-07-03T01:04:21;0.77;;;0.77;;
8161;SDS011;16778;48.154;15.094;2022-07-03T01:07:25;1.10;;;1.00;;
8161;SDS011;16778;48.154;15.094;2022-07-03T01:09:59;1.07;;;0.97;;
8161;SDS011;16778;48.154;15.094;2022-07-03T01:12:38;1.40;;;1.07;;
8161;SDS011;16778;48.154;15.094;2022-07-03T01:18:24;1.53;;;1.20;;
8161;SDS011;16778;48.154;15.094;2022-07-03T01:21:08;0.83;;;0.80;;
8161;SDS011;16778;48.154;15.094;2022-07-03T01:24:17;1.00;;;0.90;;
8161;SDS011;16778;48.154;15.094;2022-07-03T01:27:19;1.30;;;1.10;;
8161;SDS011;16778;48.154;15.094;2022-07-03T01:30:05;0.77;;;0.77;;
8161;SDS011;16778;48.154;15.094;2022-07-03T01:32:46;0.80;;;0.80;;
8161;SDS011;16778;48.154;15.094;2022-07-03T01:35:27;0.97;;;0.90;;
8161;SDS011;16778;48.154;15.094;2022-07-03T01:38:06;0.87;;;0.70;;
8161;SDS011;16778;48.154;15.094;2022-07-03T01:40:36;1.10;;;1.00;;
8161;SDS011;16778;48.154;15.094;2022-07-03T01:43:08;1.00;;;0.93;;
8161;SDS011;16778;48.154;15.094;2022-07-03T01:45:43;0.90;;;0.63;;
8161;SDS011;16778;48.154;15.094;2022-07-03T01:48:13;1.00;;;0.90;;
8161;SDS011;16778;48.154;15.094;2022-07-03T01:50:40;0.80;;;0.80;;
8161;SDS011;16778;48.154;15.094;2022-07-03T01:53:08;0.70;;;0.70;;
8161;SDS011;16778;48.154;15.094;2022-07-03T01:55:40;1.00;;;0.80;;
8161;SDS011;16778;48.154;15.094;2022-07-03T01:58:07;1.43;;;1.00;;
8161;SDS011;16778;48.154;15.094;2022-07-03T02:00:45;0.80;;;0.80;;
8161;SDS011;16778;48.154;15.094;2022-07-03T02:03:32;0.57;;;0.57;;
8161;SDS011;16778;48.154;15.094;2022-07-03T02:06:07;0.77;;;0.77;;
8161;SDS011;16778;48.154;15.094;2022-07-03T02:08:50;0.77;;;0.77;;
8161;SDS011;16778;48.154;15.094;2022-07-03T02:11:37;1.00;;;0.90;;
8161;SDS011;16778;48.154;15.094;2022-07-03T02:17:00;2.40;;;1.03;;
8161;SDS011;16778;48.154;15.094;2022-07-03T02:19:55;1.00;;;0.90;;
8161;SDS011;16778;48.154;15.094;2022-07-03T02:22:27;1.17;;;0.93;;
8161;SDS011;16778;48.154;15.094;2022-07-03T02:25:02;1.00;;;0.90;;
8161;SDS011;16778;48.154;15.094;2022-07-03T02:27:41;0.70;;;0.60;;
8161;SDS011;16778;48.154;15.094;2022-07-03T02:30:12;1.97;;;1.10;;
8161;SDS011;16778;48.154;15.094;2022-07-03T02:32:43;0.70;;;0.67;;
8161;SDS011;16778;48.154;15.094;2022-07-03T02:35:25;0.80;;;0.80;;
8161;SDS011;16778;48.154;15.094;2022-07-03T03:01:09;0.67;;;0.60;;
8161;SDS011;16778;48.154;15.094;2022-07-03T03:04:22;1.77;;;0.97;;
8161;SDS011;16778;48.154;15.094;2022-07-03T03:07:01;1.30;;;0.90;;
8161;SDS011;16778;48.154;15.094;2022-07-03T03:09:45;1.77;;;1.10;;
8161;SDS011;16778;48.154;15.094;2022-07-03T03:12:13;1.77;;;1.30;;
8161;SDS011;16778;48.154;15.094;2022-07-03T03:14:48;1.40;;;1.30;;
8161;SDS011;16778;48.154;15.094;2022-07-03T03:17:23;1.00;;;0.80;;
8161;SDS011;16778;48.154;15.094;2022-07-03T03:19:52;2.57;;;1.20;;
8161;SDS011;16778;48.154;15.094;2022-07-03T03:25:38;1.27;;;0.87;;
8161;SDS011;16778;48.154;15.094;2022-07-03T03:28:04;1.00;;;0.93;;
8161;SDS011;16778;48.154;15.094;2022-07-03T03:30:30;1.13;;;0.80;;
8161;SDS011;16778;48.154;15.094;2022-07-03T03:32:57;1.57;;;0.97;;
8161;SDS011;16778;48.154;15.094;2022-07-03T03:35:23;1.60;;;1.40;;
8161;SDS011;16778;48.154;15.094;2022-07-03T03:37:48;2.20;;;0.70;;
8161;SDS011;16778;48.154;15.094;2022-07-03T03:40:16;1.03;;;0.90;;
8161;SDS011;16778;48.154;15.094;2022-07-03T03:42:42;4.00;;;1.37;;
8161;SDS011;16778;48.154;15.094;2022-07-03T03:45:09;1.63;;;1.00;;
8161;SDS011;16778;48.154;15.094;2022-07-03T03:47:35;2.50;;;1.00;;
8161;SDS011;16778;48.154;15.094;2022-07-03T03:50:01;1.47;;;1.33;;
8161;SDS011;16778;48.154;15.094;2022-07-03T03:52:28;1.43;;;1.23;;
8161;SDS011;16778;48.154;15.094;2022-07-03T03:54:55;2.20;;;1.30;;
8161;SDS011;16778;48.154;15.094;2022-07-03T03:57:22;0.83;;;0.83;;
8161;SDS011;16778;48.154;15.094;2022-07-03T03:59:50;1.47;;;1.00;;
8161;SDS011;16778;48.154;15.094;2022-07-03T04:02:17;1.10;;;1.00;;
8161;SDS011;16778;48.154;15.094;2022-07-03T04:04:44;1.10;;;1.00;;
8161;SDS011;16778;48.154;15.094;2022-07-03T04:07:10;1.00;;;0.90;;
8161;SDS011;16778;48.154;15.094;2022-07-03T04:09:36;1.53;;;1.20;;
8161;SDS011;16778;48.154;15.094;2022-07-03T04:12:02;1.50;;;1.20;;
8161;SDS011;16778;48.154;15.094;2022-07-03T04:14:29;1.20;;;1.10;;
8161;SDS011;16778;48.154;15.094;2022-07-03T04:16:55;1.40;;;1.00;;
8161;SDS011;16778;48.154;15.094;2022-07-03T04:19:21;1.60;;;1.33;;
8161;SDS011;16778;48.154;15.094;2022-07-03T04:21:48;1.70;;;1.23;;
8161;SDS011;16778;48.154;15.094;2022-07-03T04:24:16;1.33;;;1.23;;
8161;SDS011;16778;48.154;15.094;2022-07-03T04:26:43;1.90;;;1.23;;
8161;SDS011;16778;48.154;15.094;2022-07-03T04:29:09;1.30;;;1.20;;
8161;SDS011;16778;48.154;15.094;2022-07-03T04:31:35;1.67;;;1.33;;
8161;SDS011;16778;48.154;15.094;2022-07-03T04:34:01;1.60;;;1.30;;
8161;SDS011;16778;48.154;15.094;2022-07-03T04:36:27;2.80;;;1.50;;
8161;SDS011;16778;48.154;15.094;2022-07-03T04:38:53;1.70;;;1.40;;
8161;SDS011;16778;48.154;15.094;2022-07-03T04:41:19;1.57;;;1.47;;
8161;SDS011;16778;48.154;15.094;2022-07-03T04:43:45;1.70;;;1.10;;
8161;SDS011;16778;48.154;15.094;2022-07-03T04:46:11;2.33;;;1.10;;
8161;SDS011;16778;48.154;15.094;2022-07-03T04:48:37;1.87;;;1.70;;
8161;SDS011;16778;48.154;15.094;2022-07-03T04:51:03;1.90;;;1.53;;
8161;SDS011;16778;48.154;15.094;2022-07-03T04:53:28;1.40;;;1.20;;
8161;SDS011;16778;48.154;15.094;2022-07-03T04:55:54;1.63;;;1.27;;
8161;SDS011;16778;48.154;15.094;2022-07-03T04:58:20;1.90;;;1.33;;
8161;SDS011;16778;48.154;15.094;2022-07-03T05:00:46;2.77;;;1.50;;
8161;SDS011;16778;48.154;15.094;2022-07-03T05:03:13;1.43;;;1.20;;
8161;SDS011;16778;48.154;15.094;2022-07-03T05:05:39;1.77;;;1.30;;
8161;SDS011;16778;48.154;15.094;2022-07-03T05:08:05;2.13;;;1.37;;
8161;SDS011;16778;48.154;15.094;2022-07-03T05:10:31;1.97;;;1.40;;
8161;SDS011;16778;48.154;15.094;2022-07-03T05:12:57;1.60;;;1.40;;
8161;SDS011;16778;48.154;15.094;2022-07-03T05:15:23;1.90;;;1.67;;
8161;SDS011;16778;48.154;15.094;2022-07-03T05:17:49;1.73;;;1.37;;
8161;SDS011;16778;48.154;15.094;2022-07-03T05:20:15;2.03;;;1.43;;
8161;SDS011;16778;48.154;15.094;2022-07-03T05:22:53;1.63;;;1.33;;
8161;SDS011;16778;48.154;15.094;2022-07-03T05:25:20;1.40;;;1.20;;
8161;SDS011;16778;48.154;15.094;2022-07-03T05:27:47;7.17;;;2.07;;
8161;SDS011;16778;48.154;15.094;2022-07-03T05:30:15;2.00;;;1.80;;
8161;SDS011;16778;48.154;15.094;2022-07-03T05:32:42;1.60;;;1.23;;
8161;SDS011;16778;48.154;15.094;2022-07-03T05:35:08;2.37;;;1.63;;
8161;SDS011;16778;48.154;15.094;2022-07-03T05:37:34;1.93;;;1.47;;
8161;SDS011;16778;48.154;15.094;2022-07-03T05:40:00;2.00;;;1.50;;
8161;SDS011;16778;48.154;15.094;2022-07-03T05:42:26;1.77;;;1.67;;
8161;SDS011;16778;48.154;15.094;2022-07-03T05:44:52;2.03;;;1.83;;
8161;SDS011;16778;48.154;15.094;2022-07-03T05:47:19;1.70;;;1.47;;
8161;SDS011;16778;48.154;15.094;2022-07-03T05:49:45;1.67;;;1.40;;
8161;SDS011;16778;48.154;15.094;2022-07-03T05:52:11;2.10;;;1.60;;
8161;SDS011;16778;48.154;15.094;2022-07-03T05:54:37;2.10;;;1.77;;
8161;SDS011;16778;48.154;15.094;2022-07-03T05:57:03;1.60;;;1.40;;
8161;SDS011;16778;48.154;15.094;2022-07-03T05:59:29;2.53;;;1.40;;
8161;SDS011;16778;48.154;15.094;2022-07-03T06:01:55;3.70;;;1.63;;
8161;SDS011;16778;48.154;15.094;2022-07-03T06:04:21;3.37;;;2.00;;
8161;SDS011;16778;48.154;15.094;2022-07-03T06:06:47;1.83;;;1.50;;
8161;SDS011;16778;48.154;15.094;2022-07-03T06:09:12;2.63;;;1.77;;
8161;SDS011;16778;48.154;15.094;2022-07-03T06:11:38;2.17;;;1.23;;
8161;SDS011;16778;48.154;15.094;2022-07-03T06:14:04;3.33;;;1.70;;
8161;SDS011;16778;48.154;15.094;2022-07-03T06:16:30;2.37;;;1.60;;
8161;SDS011;16778;48.154;15.094;2022-07-03T06:18:56;1.87;;;1.60;;
8161;SDS011;16778;48.154;15.094;2022-07-03T06:21:22;1.63;;;1.43;;
8161;SDS011;16778;48.154;15.094;2022-07-03T06:23:47;1.77;;;1.60;;
8161;SDS011;16778;48.154;15.094;2022-07-03T06:26:14;1.83;;;1.70;;
8161;SDS011;16778;48.154;15.094;2022-07-03T06:28:40;1.50;;;1.33;;
8161;SDS011;16778;48.154;15.094;2022-07-03T06:31:06;2.20;;;1.43;;
8161;SDS011;16778;48.154;15.094;2022-07-03T06:33:32;2.73;;;1.80;;
8161;SDS011;16778;48.154;15.094;2022-07-03T06:35:58;1.50;;;1.40;;
8161;SDS011;16778;48.154;15.094;2022-07-03T06:38:24;1.83;;;1.43;;
8161;SDS011;16778;48.154;15.094;2022-07-03T06:40:50;1.87;;;1.60;;
8161;SDS011;16778;48.154;15.094;2022-07-03T06:43:16;2.17;;;1.80;;
8161;SDS011;16778;48.154;15.094;2022-07-03T06:45:42;1.50;;;1.13;;
8161;SDS011;16778;48.154;15.094;2022-07-03T06:48:08;1.50;;;1.37;;
8161;SDS011;16778;48.154;15.094;2022-07-03T06:50:34;2.20;;;1.50;;
8161;SDS011;16778;48.154;15.094;2022-07-03T06:53:00;3.30;;;1.80;;
8161;SDS011;16778;48.154;15.094;2022-07-03T06:55:26;1.60;;;1.30;;
8161;SDS011;16778;48.154;15.094;2022-07-03T06:57:52;2.23;;;1.60;;
8161;SDS011;16778;48.154;15.094;2022-07-03T07:00:18;1.40;;;1.27;;
8161;SDS011;16778;48.154;15.094;2022-07-03T07:02:44;1.83;;;1.50;;
8161;SDS011;16778;48.154;15.094;2022-07-03T07:05:10;1.27;;;1.17;;
8161;SDS011;16778;48.154;15.094;2022-07-03T07:07:36;1.67;;;1.30;;
8161;SDS011;16778;48.154;15.094;2022-07-03T07:10:02;1.73;;;1.63;;
8161;SDS011;16778;48.154;15.094;2022-07-03T07:12:28;1.47;;;1.23;;
8161;SDS011;16778;48.154;15.094;2022-07-03T07:14:54;1.80;;;1.50;;
8161;SDS011;16778;48.154;15.094;2022-07-03T07:17:20;1.63;;;1.53;;
8161;SDS011;16778;48.154;15.094;2022-07-03T07:19:46;1.50;;;1.40;;
8161;SDS011;16778;48.154;15.094;2022-07-03T07:22:11;1.30;;;1.20;;
8161;SDS011;16778;48.154;15.094;2022-07-03T07:24:37;1.80;;;1.70;;
8161;SDS011;16778;48.154;15.094;2022-07-03T07:27:03;1.57;;;1.40;;
8161;SDS011;16778;48.154;15.094;2022-07-03T07:29:30;1.60;;;1.50;;
8161;SDS011;16778;48.154;15.094;2022-07-03T07:31:55;1.20;;;1.03;;
8161;SDS011;16778;48.154;15.094;2022-07-03T07:34:21;2.20;;;1.50;;
8161;SDS011;16778;48.154;15.094;2022-07-03T07:36:47;1.40;;;1.30;;
8161;SDS011;16778;48.154;15.094;2022-07-03T07:39:13;2.30;;;1.43;;
8161;SDS011;16778;48.154;15.094;2022-07-03T07:41:39;1.90;;;1.23;;
8161;SDS011;16778;48.154;15.094;2022-07-03T07:44:05;1.40;;;1.30;;
8161;SDS011;16778;48.154;15.094;2022-07-03T07:46:31;1.30;;;1.20;;
8161;SDS011;16778;48.154;15.094;2022-07-03T07:48:57;1.50;;;1.40;;
8161;SDS011;16778;48.154;15.094;2022-07-03T07:51:23;1.33;;;1.23;;
8161;SDS011;16778;48.154;15.094;2022-07-03T07:53:49;1.33;;;1.23;;
8161;SDS011;16778;48.154;15.094;2022-07-03T07:56:17;1.23;;;1.10;;
8161;SDS011;16778;48.154;15.094;2022-07-03T07:58:43;2.40;;;1.30;;
8161;SDS011;16778;48.154;15.094;2022-07-03T08:01:09;2.40;;;1.20;;
8161;SDS011;16778;48.154;15.094;2022-07-03T08:03:53;1.40;;;1.30;;
8161;SDS011;16778;48.154;15.094;2022-07-03T08:06:38;2.27;;;1.60;;
8161;SDS011;16778;48.154;15.094;2022-07-03T08:09:04;1.77;;;1.40;;
8161;SDS011;16778;48.154;15.094;2022-07-03T08:11:30;1.27;;;1.17;;
8161;SDS011;16778;48.154;15.094;2022-07-03T08:13:56;1.50;;;1.40;;
8161;SDS011;16778;48.154;15.094;2022-07-03T08:16:21;1.50;;;1.40;;
8161;SDS011;16778;48.154;15.094;2022-07-03T08:18:47;1.80;;;1.23;;
8161;SDS011;16778;48.154;15.094;2022-07-03T08:21:13;1.37;;;1.20;;
8161;SDS011;16778;48.154;15.094;2022-07-03T08:23:39;1.47;;;1.30;;
8161;SDS011;16778;48.154;15.094;2022-07-03T08:26:05;1.23;;;1.00;;
8161;SDS011;16778;48.154;15.094;2022-07-03T08:28:31;1.87;;;1.60;;
8161;SDS011;16778;48.154;15.094;2022-07-03T08:30:56;1.50;;;1.13;;
8161;SDS011;16778;48.154;15.094;2022-07-03T08:33:22;1.23;;;1.13;;
8161;SDS011;16778;48.154;15.094;2022-07-03T08:35:48;1.10;;;1.00;;
8161;SDS011;16778;48.154;15.094;2022-07-03T08:38:14;1.73;;;1.20;;
8161;SDS011;16778;48.154;15.094;2022-07-03T08:40:40;1.80;;;1.23;;
8161;SDS011;16778;48.154;15.094;2022-07-03T08:43:08;1.00;;;1.00;;
8161;SDS011;16778;48.154;15.094;2022-07-03T08:45:34;1.27;;;1.17;;
8161;SDS011;16778;48.154;15.094;2022-07-03T08:48:03;2.10;;;1.10;;
8161;SDS011;16778;48.154;15.094;2022-07-03T08:50:32;1.30;;;1.20;;
8161;SDS011;16778;48.154;15.094;2022-07-03T08:52:59;1.53;;;1.37;;
8161;SDS011;16778;48.154;15.094;2022-07-03T08:55:28;1.50;;;0.97;;
8161;SDS011;16778;48.154;15.094;2022-07-03T08:57:54;1.33;;;0.90;;
8161;SDS011;16778;48.154;15.094;2022-07-03T09:00:23;1.20;;;1.10;;
8161;SDS011;16778;48.154;15.094;2022-07-03T09:02:51;1.00;;;0.97;;
8161;SDS011;16778;48.154;15.094;2022-07-03T09:05:17;1.10;;;1.00;;
8161;SDS011;16778;48.154;15.094;2022-07-03T09:07:44;0.77;;;0.70;;
8161;SDS011;16778;48.154;15.094;2022-07-03T09:10:12;1.37;;;1.00;;
8161;SDS011;16778;48.154;15.094;2022-07-03T09:12:43;1.40;;;1.23;;
8161;SDS011;16778;48.154;15.094;2022-07-03T09:15:11;1.33;;;1.00;;
8161;SDS011;16778;48.154;15.094;2022-07-03T09:17:38;1.10;;;1.00;;
8161;SDS011;16778;48.154;15.094;2022-07-03T09:20:05;1.27;;;1.17;;
8161;SDS011;16778;48.154;15.094;2022-07-03T09:22:33;0.83;;;0.83;;
8161;SDS011;16778;48.154;15.094;2022-07-03T09:25:05;0.87;;;0.87;;
8161;SDS011;16778;48.154;15.094;2022-07-03T09:27:33;1.20;;;1.10;;
8161;SDS011;16778;48.154;15.094;2022-07-03T09:30:02;1.07;;;0.97;;
8161;SDS011;16778;48.154;15.094;2022-07-03T09:35:16;0.80;;;0.80;;
8161;SDS011;16778;48.154;15.094;2022-07-03T09:37:49;1.00;;;0.90;;
8161;SDS011;16778;48.154;15.094;2022-07-03T09:40:20;1.37;;;1.23;;
8161;SDS011;16778;48.154;15.094;2022-07-03T09:43:01;0.93;;;0.87;;
8161;SDS011;16778;48.154;15.094;2022-07-03T09:45:48;0.73;;;0.73;;
8161;SDS011;16778;48.154;15.094;2022-07-03T09:51:22;0.70;;;0.70;;
8161;SDS011;16778;48.154;15.094;2022-07-03T09:56:32;1.20;;;1.10;;
8161;SDS011;16778;48.154;15.094;2022-07-03T09:59:07;3.07;;;1.27;;
8161;SDS011;16778;48.154;15.094;2022-07-03T10:01:42;1.10;;;0.83;;
8161;SDS011;16778;48.154;15.094;2022-07-03T10:06:55;1.10;;;1.00;;
8161;SDS011;16778;48.154;15.094;2022-07-03T10:09:29;0.80;;;0.80;;
8161;SDS011;16778;48.154;15.094;2022-07-03T10:11:58;1.70;;;1.23;;
8161;SDS011;16778;48.154;15.094;2022-07-03T10:14:30;1.30;;;0.93;;
8161;SDS011;16778;48.154;15.094;2022-07-03T10:16:58;0.97;;;0.80;;
8161;SDS011;16778;48.154;15.094;2022-07-03T10:19:28;1.00;;;0.90;;
8161;SDS011;16778;48.154;15.094;2022-07-03T10:21:56;1.03;;;0.93;;
8161;SDS011;16778;48.154;15.094;2022-07-03T10:24:26;0.80;;;0.80;;
8161;SDS011;16778;48.154;15.094;2022-07-03T10:26:56;1.00;;;0.90;;
8161;SDS011;16778;48.154;15.094;2022-07-03T10:29:24;1.23;;;0.70;;
8161;SDS011;16778;48.154;15.094;2022-07-03T10:31:52;1.00;;;0.90;;
8161;SDS011;16778;48.154;15.094;2022-07-03T10:34:22;1.00;;;0.97;;
8161;SDS011;16778;48.154;15.094;2022-07-03T10:36:57;1.20;;;1.03;;
8161;SDS011;16778;48.154;15.094;2022-07-03T10:39:44;0.87;;;0.80;;
8161;SDS011;16778;48.154;15.094;2022-07-03T10:42:48;1.27;;;0.80;;
8161;SDS011;16778;48.154;15.094;2022-07-03T10:45:51;0.90;;;0.90;;
8161;SDS011;16778;48.154;15.094;2022-07-03T10:51:25;0.73;;;0.70;;
8161;SDS011;16778;48.154;15.094;2022-07-03T11:07:33;0.80;;;0.80;;
8161;SDS011;16778;48.154;15.094;2022-07-03T11:15:33;0.97;;;0.80;;
8161;SDS011;16778;48.154;15.094;2022-07-03T11:25:57;0.60;;;0.60;;
8161;SDS011;16778;48.154;15.094;2022-07-03T11:38:46;0.40;;;0.40;;
8161;SDS011;16778;48.154;15.094;2022-07-03T11:41:30;0.40;;;0.40;;
8161;SDS011;16778;48.154;15.094;2022-07-03T11:44:02;0.67;;;0.67;;
8161;SDS011;16778;48.154;15.094;2022-07-03T11:46:31;0.70;;;0.60;;
8161;SDS011;16778;48.154;15.094;2022-07-03T11:51:35;0.40;;;0.40;;
8161;SDS011;16778;48.154;15.094;2022-07-03T11:54:04;0.43;;;0.43;;
8161;SDS011;16778;48.154;15.094;2022-07-03T11:56:31;0.63;;;0.63;;
8161;SDS011;16778;48.154;15.094;2022-07-03T11:58:59;0.50;;;0.50;;
8161;SDS011;16778;48.154;15.094;2022-07-03T12:01:34;0.80;;;0.80;;
8161;SDS011;16778;48.154;15.094;2022-07-03T12:04:14;0.60;;;0.60;;
8161;SDS011;16778;48.154;15.094;2022-07-03T12:06:48;0.60;;;0.60;;
8161;SDS011;16778;48.154;15.094;2022-07-03T12:09:28;1.13;;;0.90;;
8161;SDS011;16778;48.154;15.094;2022-07-03T12:12:01;0.60;;;0.60;;
8161;SDS011;16778;48.154;15.094;2022-07-03T12:17:20;0.50;;;0.50;;
8161;SDS011;16778;48.154;15.094;2022-07-03T12:19:59;0.43;;;0.43;;
8161;SDS011;16778;48.154;15.094;2022-07-03T12:24:58;0.80;;;0.60;;
8161;SDS011;16778;48.154;15.094;2022-07-03T12:27:34;0.50;;;0.50;;
8161;SDS011;16778;48.154;15.094;2022-07-03T12:30:02;0.60;;;0.60;;
8161;SDS011;16778;48.154;15.094;2022-07-03T12:32:31;0.70;;;0.70;;
8161;SDS011;16778;48.154;15.094;2022-07-03T12:34:57;0.50;;;0.50;;
8161;SDS011;16778;48.154;15.094;2022-07-03T12:37:36;1.17;;;0.70;;
8161;SDS011;16778;48.154;15.094;2022-07-03T12:40:10;2.00;;;0.80;;
8161;SDS011;16778;48.154;15.094;2022-07-03T12:42:48;0.80;;;0.60;;
8161;SDS011;16778;48.154;15.094;2022-07-03T12:45:18;0.60;;;0.60;;
8161;SDS011;16778;48.154;15.094;2022-07-03T12:47:58;0.50;;;0.50;;
8161;SDS011;16778;48.154;15.094;2022-07-03T12:50:43;0.70;;;0.70;;
8161;SDS011;16778;48.154;15.094;2022-07-03T12:53:30;0.50;;;0.50;;
8161;SDS011;16778;48.154;15.094;2022-07-03T12:56:01;0.60;;;0.60;;
8161;SDS011;16778;48.154;15.094;2022-07-03T12:58:35;0.30;;;0.30;;
8161;SDS011;16778;48.154;15.094;2022-07-03T13:04:02;0.67;;;0.60;;
8161;SDS011;16778;48.154;15.094;2022-07-03T13:06:29;0.77;;;0.50;;
8161;SDS011;16778;48.154;15.094;2022-07-03T13:08:57;0.50;;;0.50;;
8161;SDS011;16778;48.154;15.094;2022-07-03T13:11:26;0.57;;;0.57;;
8161;SDS011;16778;48.154;15.094;2022-07-03T13:14:06;0.80;;;0.80;;
8161;SDS011;16778;48.154;15.094;2022-07-03T13:16:46;0.70;;;0.70;;
8161;SDS011;16778;48.154;15.094;2022-07-03T13:19:14;0.57;;;0.57;;
8161;SDS011;16778;48.154;15.094;2022-07-03T13:21:45;0.80;;;0.43;;
8161;SDS011;16778;48.154;15.094;2022-07-03T13:24:12;0.30;;;0.30;;
8161;SDS011;16778;48.154;15.094;2022-07-03T13:26:41;0.50;;;0.50;;
8161;SDS011;16778;48.154;15.094;2022-07-03T13:29:08;0.40;;;0.40;;
8161;SDS011;16778;48.154;15.094;2022-07-03T13:31:34;0.47;;;0.47;;
8161;SDS011;16778;48.154;15.094;2022-07-03T13:34:00;0.30;;;0.30;;
8161;SDS011;16778;48.154;15.094;2022-07-03T13:36:27;0.60;;;0.60;;
8161;SDS011;16778;48.154;15.094;2022-07-03T13:38:55;0.33;;;0.33;;
8161;SDS011;16778;48.154;15.094;2022-07-03T13:41:22;0.50;;;0.50;;
8161;SDS011;16778;48.154;15.094;2022-07-03T13:43:48;0.60;;;0.60;;
8161;SDS011;16778;48.154;15.094;2022-07-03T13:46:16;0.70;;;0.70;;
8161;SDS011;16778;48.154;15.094;2022-07-03T13:48:43;0.40;;;0.40;;
8161;SDS011;16778;48.154;15.094;2022-07-03T13:51:09;0.45;;;0.45;;
8161;SDS011;16778;48.154;15.094;2022-07-03T13:53:35;0.60;;;0.60;;
8161;SDS011;16778;48.154;15.094;2022-07-03T13:56:02;0.63;;;0.63;;
8161;SDS011;16778;48.154;15.094;2022-07-03T13:58:28;0.50;;;0.50;;
8161;SDS011;16778;48.154;15.094;2022-07-03T14:00:54;0.57;;;0.57;;
8161;SDS011;16778;48.154;15.094;2022-07-03T14:03:20;0.60;;;0.60;;
8161;SDS011;16778;48.154;15.094;2022-07-03T14:05:47;0.47;;;0.47;;
8161;SDS011;16778;48.154;15.094;2022-07-03T14:08:18;0.55;;;0.55;;
8161;SDS011;16778;48.154;15.094;2022-07-03T14:10:45;0.50;;;0.50;;
8161;SDS011;16778;48.154;15.094;2022-07-03T14:13:11;0.65;;;0.65;;
8161;SDS011;16778;48.154;15.094;2022-07-03T14:15:38;0.50;;;0.50;;
8161;SDS011;16778;48.154;15.094;2022-07-03T14:18:04;0.65;;;0.50;;
8161;SDS011;16778;48.154;15.094;2022-07-03T14:20:30;0.60;;;0.60;;
8161;SDS011;16778;48.154;15.094;2022-07-03T14:22:56;0.60;;;0.60;;
8161;SDS011;16778;48.154;15.094;2022-07-03T14:25:22;0.85;;;0.60;;
8161;SDS011;16778;48.154;15.094;2022-07-03T14:27:48;0.55;;;0.55;;
8161;SDS011;16778;48.154;15.094;2022-07-03T14:30:32;0.60;;;0.60;;
8161;SDS011;16778;48.154;15.094;2022-07-03T14:33:17;0.50;;;0.50;;
8161;SDS011;16778;48.154;15.094;2022-07-03T14:35:43;0.52;;;0.52;;
8161;SDS011;16778;48.154;15.094;2022-07-03T14:38:08;0.60;;;0.60;;
8161;SDS011;16778;48.154;15.094;2022-07-03T14:40:34;0.60;;;0.60;;
8161;SDS011;16778;48.154;15.094;2022-07-03T14:43:00;0.73;;;0.73;;
8161;SDS011;16778;48.154;15.094;2022-07-03T14:45:26;0.52;;;0.52;;
8161;SDS011;16778;48.154;15.094;2022-07-03T14:47:52;0.85;;;0.85;;
8161;SDS011;16778;48.154;15.094;2022-07-03T14:50:18;0.50;;;0.50;;
8161;SDS011;16778;48.154;15.094;2022-07-03T14:52:46;0.60;;;0.60;;
8161;SDS011;16778;48.154;15.094;2022-07-03T14:55:12;0.55;;;0.55;;
8161;SDS011;16778;48.154;15.094;2022-07-03T14:57:42;0.73;;;0.73;;
8161;SDS011;16778;48.154;15.094;2022-07-03T15:00:17;0.70;;;0.70;;
8161;SDS011;16778;48.154;15.094;2022-07-03T15:02:53;0.70;;;0.70;;
8161;SDS011;16778;48.154;15.094;2022-07-03T15:05:33;0.77;;;0.77;;
8161;SDS011;16778;48.154;15.094;2022-07-03T15:11:00;0.40;;;0.40;;
8161;SDS011;16778;48.154;15.094;2022-07-03T15:13:31;0.70;;;0.70;;
8161;SDS011;16778;48.154;15.094;2022-07-03T15:15:59;0.60;;;0.60;;
8161;SDS011;16778;48.154;15.094;2022-07-03T15:18:25;0.60;;;0.60;;
8161;SDS011;16778;48.154;15.094;2022-07-03T15:20:54;0.60;;;0.60;;
8161;SDS011;16778;48.154;15.094;2022-07-03T15:23:22;0.73;;;0.73;;
8161;SDS011;16778;48.154;15.094;2022-07-03T15:25:49;0.60;;;0.60;;
8161;SDS011;16778;48.154;15.094;2022-07-03T15:28:15;1.08;;;0.93;;
8161;SDS011;16778;48.154;15.094;2022-07-03T15:30:46;0.80;;;0.80;;
8161;SDS011;16778;48.154;15.094;2022-07-03T15:33:16;0.60;;;0.60;;
8161;SDS011;16778;48.154;15.094;2022-07-03T15:35:49;0.73;;;0.70;;
8161;SDS011;16778;48.154;15.094;2022-07-03T15:38:21;0.63;;;0.63;;
8161;SDS011;16778;48.154;15.094;2022-07-03T15:41:12;0.60;;;0.60;;
8161;SDS011;16778;48.154;15.094;2022-07-03T15:44:37;0.82;;;0.70;;
8161;SDS011;16778;48.154;15.094;2022-07-03T15:49:30;0.70;;;0.70;;
8161;SDS011;16778;48.154;15.094;2022-07-03T15:52:17;0.52;;;0.52;;
8161;SDS011;16778;48.154;15.094;2022-07-03T15:55:04;0.80;;;0.80;;
8161;SDS011;16778;48.154;15.094;2022-07-03T15:58:07;0.90;;;0.80;;
8161;SDS011;16778;48.154;15.094;2022-07-03T16:00:37;2.35;;;0.90;;
8161;SDS011;16778;48.154;15.094;2022-07-03T16:05:41;0.90;;;0.90;;
8161;SDS011;16778;48.154;15.094;2022-07-03T16:08:11;0.52;;;0.52;;
8161;SDS011;16778;48.154;15.094;2022-07-03T16:10:39;1.00;;;0.90;;
8161;SDS011;16778;48.154;15.094;2022-07-03T16:13:06;0.63;;;0.63;;
8161;SDS011;16778;48.154;15.094;2022-07-03T16:15:36;0.70;;;0.70;;
8161;SDS011;16778;48.154;15.094;2022-07-03T16:18:07;0.73;;;0.73;;
8161;SDS011;16778;48.154;15.094;2022-07-03T16:20:34;0.90;;;0.90;;
8161;SDS011;16778;48.154;15.094;2022-07-03T16:23:02;1.30;;;0.80;;
8161;SDS011;16778;48.154;15.094;2022-07-03T16:25:34;0.57;;;0.57;;
8161;SDS011;16778;48.154;15.094;2022-07-03T16:28:03;1.20;;;1.10;;
8161;SDS011;16778;48.154;15.094;2022-07-03T16:30:41;1.08;;;0.98;;
8161;SDS011;16778;48.154;15.094;2022-07-03T16:33:11;0.80;;;0.80;;
8161;SDS011;16778;48.154;15.094;2022-07-03T16:35:49;0.60;;;0.60;;
8161;SDS011;16778;48.154;15.094;2022-07-03T16:38:40;0.80;;;0.80;;
8161;SDS011;16778;48.154;15.094;2022-07-03T16:41:10;0.57;;;0.57;;
8161;SDS011;16778;48.154;15.094;2022-07-03T16:43:40;0.70;;;0.70;;
8161;SDS011;16778;48.154;15.094;2022-07-03T16:46:09;0.60;;;0.60;;
8161;SDS011;16778;48.154;15.094;2022-07-03T16:48:37;1.00;;;0.90;;
8161;SDS011;16778;48.154;15.094;2022-07-03T16:51:14;0.60;;;0.60;;